Time;durP1;ratioP1;P1;durP2;ratioP2;P2;SDS_P1;SDS_P2;PMS_P1;PMS_P2;Temp;Humidity;BMP_temperature;BMP_pressure;BME280_temperature;BME280_humidity;BME280_pressure;Samples;Min_cycle;Max_cycle;Signal;HPM_P1;HPM_P2
2021/12/11 00:01:47;;;;;;;7.50;1.67;;;10.60;99.90;;;;;;5169087;28;20089;-75
2021/12/11 00:04:34;;;;;;;5.25;1.27;;;10.60;99.90;;;;;;5169194;28;20019;-75
2021/12/11 00:07:10;;;;;;;3.95;1.13;;;10.60;99.90;;;;;;5169323;28;20034;-76
2021/12/11 00:09:46;;;;;;;7.47;1.25;;;10.80;99.90;;;;;;5169088;28;20025;-75
2021/12/11 00:12:26;;;;;;;11.07;1.40;;;10.80;99.90;;;;;;5169270;28;20137;-75
2021/12/11 00:15:06;;;;;;;8.60;1.25;;;10.80;99.90;;;;;;5168899;28;20058;-75
2021/12/11 00:17:37;;;;;;;8.57;1.77;;;10.70;99.90;;;;;;5168825;28;20121;-75
2021/12/11 00:20:22;;;;;;;3.95;1.35;;;10.70;99.90;;;;;;5168270;28;20033;-75
2021/12/11 00:22:53;;;;;;;8.23;1.27;;;10.70;99.90;;;;;;5168746;28;20034;-75
2021/12/11 00:25:24;;;;;;;6.05;1.20;;;10.70;99.90;;;;;;5167415;28;20030;-76
2021/12/11 00:28:07;;;;;;;5.88;1.40;;;10.60;99.90;;;;;;5169054;28;20030;-75
2021/12/11 00:30:41;;;;;;;7.10;1.35;;;10.60;99.90;;;;;;5168405;28;20054;-75
2021/12/11 00:33:17;;;;;;;8.45;1.48;;;10.70;99.90;;;;;;5169382;28;20038;-75
2021/12/11 00:35:51;;;;;;;10.45;1.52;;;10.80;99.90;;;;;;5168886;28;20470;-75
2021/12/11 00:38:32;;;;;;;9.73;1.80;;;10.70;99.90;;;;;;5168488;28;20038;-75
2021/12/11 00:41:09;;;;;;;9.63;1.97;;;10.70;99.90;;;;;;5169150;28;20033;-75
2021/12/11 00:43:41;;;;;;;8.70;1.63;;;10.80;99.90;;;;;;5167684;28;20033;-75
2021/12/11 00:46:23;;;;;;;7.60;1.73;;;10.70;99.90;;;;;;5167100;28;20122;-74
2021/12/11 00:49:21;;;;;;;13.35;1.70;;;10.80;99.90;;;;;;5168936;28;20061;-75
2021/12/11 00:51:56;;;;;;;11.43;1.45;;;10.60;99.90;;;;;;5168551;28;20045;-74
2021/12/11 00:54:27;;;;;;;11.20;1.40;;;10.80;99.90;;;;;;5168417;28;20429;-75
2021/12/11 00:56:57;;;;;;;10.02;1.80;;;10.80;99.90;;;;;;5168461;28;20031;-76
2021/12/11 00:59:28;;;;;;;9.60;1.60;;;10.90;99.90;;;;;;5168107;28;20026;-75
2021/12/11 01:02:01;;;;;;;5.38;1.30;;;10.90;99.90;;;;;;5168022;28;20033;-74
2021/12/11 01:04:41;;;;;;;7.15;1.17;;;10.70;99.90;;;;;;5168006;28;20031;-75
2021/12/11 01:07:20;;;;;;;6.90;1.90;;;11.00;99.90;;;;;;5168391;28;20478;-76
2021/12/11 01:10:16;;;;;;;9.50;1.80;;;10.90;99.90;;;;;;5168155;28;20080;-76
2021/12/11 01:12:56;;;;;;;6.05;1.38;;;10.80;99.90;;;;;;5168357;28;20035;-76
2021/12/11 01:15:44;;;;;;;9.63;1.75;;;10.80;99.90;;;;;;5167861;28;20033;-76
2021/12/11 01:21:03;;;;;;;12.27;1.50;;;10.70;99.90;;;;;;5167633;28;20022;-74
2021/12/11 01:26:16;;;;;;;8.73;1.52;;;10.70;99.90;;;;;;5167674;28;20033;-75
2021/12/11 01:28:48;;;;;;;9.40;1.70;;;10.90;99.90;;;;;;5167515;28;20033;-75
2021/12/11 01:31:21;;;;;;;13.23;1.83;;;11.00;99.90;;;;;;5166010;28;20398;-75
2021/12/11 01:33:53;;;;;;;9.35;1.65;;;11.00;99.90;;;;;;5167156;28;20064;-75
2021/12/11 01:36:24;;;;;;;7.88;1.70;;;10.70;99.90;;;;;;5167784;28;20050;-76
2021/12/11 01:39:04;;;;;;;11.05;1.70;;;10.90;99.90;;;;;;5167323;28;20134;-75
2021/12/11 01:41:35;;;;;;;11.70;1.80;;;11.00;99.90;;;;;;5167799;28;20434;-76
2021/12/11 01:44:12;;;;;;;12.27;1.65;;;10.90;99.90;;;;;;5167257;28;20482;-75
2021/12/11 01:46:43;;;;;;;6.78;1.60;;;10.70;99.90;;;;;;5167400;28;20037;-76
2021/12/11 01:49:20;;;;;;;7.70;1.63;;;10.90;99.90;;;;;;5167168;28;20406;-76
2021/12/11 01:51:58;;;;;;;9.25;1.67;;;10.90;99.90;;;;;;5167141;28;20034;-76
2021/12/11 01:54:37;;;;;;;10.45;2.20;;;11.10;99.90;;;;;;5166958;28;20109;-76
2021/12/11 01:57:15;;;;;;;13.88;2.03;;;11.00;99.90;;;;;;5165807;28;20058;-76
2021/12/11 01:59:53;;;;;;;11.05;2.17;;;11.10;99.90;;;;;;5166953;28;20061;-76
2021/12/11 02:02:34;;;;;;;11.30;2.03;;;11.10;99.90;;;;;;5166994;28;20023;-75
2021/12/11 02:05:06;;;;;;;7.30;1.70;;;11.20;99.90;;;;;;5167265;28;20026;-76
2021/12/11 02:07:46;;;;;;;8.75;2.00;;;11.10;99.90;;;;;;5166794;28;20030;-76
2021/12/11 02:10:33;;;;;;;13.60;2.35;;;11.30;99.90;;;;;;5166970;28;20030;-75
2021/12/11 02:13:08;;;;;;;10.15;1.90;;;11.20;99.90;;;;;;5166776;28;20425;-76
2021/12/11 02:15:48;;;;;;;14.18;1.95;;;11.00;99.90;;;;;;5166957;28;20369;-75
2021/12/11 02:18:22;;;;;;;11.43;2.42;;;10.80;99.90;;;;;;5166950;28;20105;-75
2021/12/11 02:20:59;;;;;;;15.00;2.03;;;10.90;99.90;;;;;;5166868;28;20022;-75
2021/12/11 02:23:30;;;;;;;12.80;1.80;;;11.00;99.90;;;;;;5166592;28;20085;-75
2021/12/11 02:26:06;;;;;;;17.98;2.38;;;11.00;99.90;;;;;;5166650;28;20029;-76
2021/12/11 02:28:44;;;;;;;12.85;2.20;;;11.20;99.90;;;;;;5166452;28;20027;-75
2021/12/11 02:31:46;;;;;;;15.40;2.10;;;11.30;99.90;;;;;;5164993;28;20141;-75
2021/12/11 02:34:35;;;;;;;11.63;2.50;;;11.20;99.90;;;;;;5166612;28;20390;-75
2021/12/11 02:37:20;;;;;;;11.95;1.98;;;11.10;99.90;;;;;;5166624;28;20038;-76
2021/12/11 02:39:56;;;;;;;11.20;1.90;;;10.90;99.90;;;;;;5167078;28;20033;-75
2021/12/11 02:42:43;;;;;;;14.25;2.13;;;10.90;99.90;;;;;;5166340;28;20023;-75
2021/12/11 02:45:14;;;;;;;11.38;1.92;;;11.10;99.90;;;;;;5166368;28;20027;-75
2021/12/11 02:47:56;;;;;;;10.18;2.30;;;11.10;99.90;;;;;;5166433;28;20500;-74
2021/12/11 02:50:33;;;;;;;11.25;2.20;;;11.20;99.90;;;;;;5166504;28;20053;-75
2021/12/11 02:53:28;;;;;;;10.20;2.20;;;11.00;99.90;;;;;;5166853;28;20478;-76
2021/12/11 02:56:13;;;;;;;9.82;1.75;;;10.90;99.90;;;;;;5167022;28;20034;-75
2021/12/11 02:58:50;;;;;;;14.48;2.97;;;11.00;99.90;;;;;;5165837;28;20034;-75
2021/12/11 03:01:29;;;;;;;16.90;2.28;;;11.00;99.90;;;;;;5166238;28;20033;-75
2021/12/11 03:04:18;;;;;;;13.63;2.20;;;10.80;99.90;;;;;;5166225;28;20073;-75
2021/12/11 03:06:51;;;;;;;11.57;2.17;;;11.00;99.90;;;;;;5166574;28;20340;-76
2021/12/11 03:09:25;;;;;;;16.45;2.00;;;11.00;99.90;;;;;;5166845;28;20023;-76
2021/12/11 03:11:59;;;;;;;11.00;1.95;;;10.80;99.90;;;;;;5166161;28;20444;-76
2021/12/11 03:14:30;;;;;;;11.88;2.17;;;10.80;99.90;;;;;;5165041;28;20015;-75
2021/12/11 03:17:01;;;;;;;12.63;2.05;;;10.70;99.90;;;;;;5166262;28;20030;-76
2021/12/11 03:19:36;;;;;;;9.68;1.80;;;10.40;99.90;;;;;;5164852;28;20026;-75
2021/12/11 03:22:11;;;;;;;16.40;3.03;;;10.50;99.90;;;;;;5166167;28;20176;-75
2021/12/11 03:24:42;;;;;;;11.35;1.80;;;10.70;99.90;;;;;;5166080;28;20033;-75
2021/12/11 03:27:13;;;;;;;16.05;1.83;;;10.70;99.90;;;;;;5166100;28;20382;-75
2021/12/11 03:29:45;;;;;;;14.70;2.30;;;10.50;99.90;;;;;;5164665;28;20050;-75
2021/12/11 03:32:16;;;;;;;11.10;1.77;;;10.60;99.90;;;;;;5165725;28;20050;-75
2021/12/11 03:34:50;;;;;;;11.55;1.80;;;10.60;99.90;;;;;;5166096;28;20029;-75
2021/12/11 03:37:21;;;;;;;12.63;1.92;;;10.40;99.90;;;;;;5165984;28;20077;-75
2021/12/11 03:39:55;;;;;;;10.20;1.85;;;10.40;99.90;;;;;;5166161;28;20459;-75
2021/12/11 03:42:31;;;;;;;6.35;1.52;;;10.30;99.90;;;;;;5165923;28;20032;-75
2021/12/11 03:45:06;;;;;;;10.73;1.90;;;9.60;99.90;;;;;;5166048;28;20359;-75
2021/12/11 03:47:41;;;;;;;16.30;2.30;;;10.50;99.90;;;;;;5165838;28;20033;-76
2021/12/11 03:50:14;;;;;;;11.63;3.03;;;10.30;99.90;;;;;;5166073;28;20386;-76
2021/12/11 03:52:47;;;;;;;8.32;1.45;;;10.30;99.90;;;;;;5165945;28;20038;-76
2021/12/11 03:55:26;;;;;;;14.10;1.83;;;10.20;99.90;;;;;;5165743;28;20030;-75
2021/12/11 03:58:01;;;;;;;7.47;1.50;;;10.50;99.90;;;;;;5169468;28;20037;-75
2021/12/11 04:00:40;;;;;;;11.45;1.77;;;10.80;99.90;;;;;;5169399;28;20489;-77
2021/12/11 04:03:15;;;;;;;12.25;2.00;;;10.70;99.90;;;;;;5146519;28;20121;-76
2021/12/11 04:05:47;;;;;;;15.63;1.60;;;10.10;99.90;;;;;;5147004;28;20046;-76
2021/12/11 04:08:40;;;;;;;8.25;1.70;;;9.70;99.90;;;;;;5147631;28;20049;-74
2021/12/11 04:11:18;;;;;;;11.13;2.25;;;9.10;99.90;;;;;;5147107;28;20113;-74
2021/12/11 04:13:52;;;;;;;14.50;1.95;;;9.20;99.90;;;;;;5147066;28;20525;-74
2021/12/11 04:16:23;;;;;;;17.13;1.75;;;9.30;99.90;;;;;;5146386;28;20038;-74
2021/12/11 04:18:55;;;;;;;6.93;1.70;;;8.80;99.90;;;;;;5146196;28;20495;-75
2021/12/11 04:21:26;;;;;;;15.10;1.92;;;9.00;99.90;;;;;;5146765;28;20058;-73
2021/12/11 04:23:58;;;;;;;10.75;2.22;;;9.20;99.90;;;;;;5146598;28;20038;-74
2021/12/11 04:26:29;;;;;;;14.55;1.67;;;8.70;99.90;;;;;;5146601;28;20050;-74
2021/12/11 04:29:00;;;;;;;8.90;1.70;;;8.60;99.90;;;;;;5146521;28;20037;-73
2021/12/11 04:31:33;;;;;;;12.70;1.92;;;8.80;99.90;;;;;;5146246;28;20054;-73
2021/12/11 04:34:07;;;;;;;10.38;1.67;;;8.60;99.90;;;;;;5130295;28;20521;-74
2021/12/11 04:36:43;;;;;;;13.32;1.92;;;8.60;99.90;;;;;;5130725;28;20059;-74
2021/12/11 04:39:17;;;;;;;8.07;1.90;;;8.20;99.90;;;;;;5146309;28;20027;-75
2021/12/11 04:41:57;;;;;;;13.30;2.03;;;9.00;99.90;;;;;;5168863;28;20049;-74
2021/12/11 04:44:34;;;;;;;;;;;9.10;99.90;;;;;;5168720;28;20034;-75
2021/12/11 04:47:12;;;;;;;10.15;2.00;;;9.10;99.90;;;;;;5168664;28;20361;-74
2021/12/11 04:49:53;;;;;;;9.40;1.95;;;9.30;99.90;;;;;;5168619;28;20109;-74
2021/12/11 04:52:34;;;;;;;13.15;1.88;;;8.80;99.90;;;;;;5168565;28;20506;-75
2021/12/11 04:55:28;;;;;;;10.18;2.20;;;8.60;99.90;;;;;;5168865;28;20019;-74
2021/12/11 05:01:14;;;;;;;13.70;2.28;;;9.20;99.90;;;;;;5168013;28;20093;-77
2021/12/11 05:06:42;;;;;;;11.80;2.00;;;8.90;99.90;;;;;;5168530;28;20026;-76
2021/12/11 05:11:54;;;;;;;12.82;2.15;;;8.80;99.90;;;;;;5168474;28;20034;-75
2021/12/11 05:14:25;;;;;;;15.63;2.10;;;8.30;99.90;;;;;;5167820;28;20378;-76
2021/12/11 05:16:56;;;;;;;11.05;1.63;;;8.40;99.90;;;;;;5168026;28;20030;-75
2021/12/11 05:19:28;;;;;;;11.45;1.48;;;8.60;99.90;;;;;;5168558;28;20378;-76
2021/12/11 05:21:59;;;;;;;17.45;2.72;;;8.30;99.90;;;;;;5167946;28;20019;-75
2021/12/11 05:24:30;;;;;;;13.85;2.53;;;8.70;99.90;;;;;;5167674;28;20031;-74
2021/12/11 05:27:03;;;;;;;18.35;3.00;;;8.70;99.90;;;;;;5168293;28;20029;-77
2021/12/11 05:29:35;;;;;;;11.52;2.28;;;10.30;99.90;;;;;;5166338;28;20034;-77
2021/12/11 05:32:09;;;;;;;16.35;2.38;;;10.20;99.90;;;;;;5167244;28;20061;-76
2021/12/11 05:34:41;;;;;;;10.55;2.38;;;10.40;99.90;;;;;;5167551;28;20061;-76
2021/12/11 05:37:12;;;;;;;11.70;2.33;;;9.30;99.90;;;;;;5167402;28;20022;-76
2021/12/11 05:39:44;;;;;;;12.55;2.33;;;8.90;99.90;;;;;;5167283;28;20026;-76
2021/12/11 05:42:15;;;;;;;11.35;2.85;;;8.90;99.90;;;;;;5167542;28;20113;-75
2021/12/11 05:44:46;;;;;;;15.02;2.70;;;9.00;99.90;;;;;;5167175;28;20031;-76
2021/12/11 05:47:17;;;;;;;24.48;2.72;;;9.40;99.90;;;;;;5167497;28;20022;-76
2021/12/11 05:49:49;;;;;;;12.18;2.67;;;9.00;99.90;;;;;;5167476;28;20050;-80
2021/12/11 05:52:20;;;;;;;18.27;2.42;;;8.70;99.90;;;;;;5167225;28;20034;-77
2021/12/11 05:54:51;;;;;;;9.88;2.28;;;8.50;99.90;;;;;;5167349;28;20029;-76
2021/12/11 05:57:23;;;;;;;12.55;2.22;;;8.60;99.90;;;;;;5166921;28;20030;-75
2021/12/11 05:59:54;;;;;;;20.88;2.35;;;8.80;99.90;;;;;;5166835;28;20041;-77
2021/12/11 06:02:28;;;;;;;11.45;2.17;;;8.40;99.90;;;;;;5166846;28;20030;-77
2021/12/11 06:04:59;;;;;;;10.65;2.58;;;8.40;99.90;;;;;;5166713;28;20069;-77
2021/12/11 06:07:31;;;;;;;13.88;2.45;;;8.40;99.90;;;;;;5166788;28;20027;-78
2021/12/11 06:10:10;;;;;;;14.93;2.88;;;8.40;99.90;;;;;;5166793;28;20049;-75
2021/12/11 06:12:41;;;;;;;11.25;2.97;;;8.50;99.90;;;;;;5176232;28;20056;-74
2021/12/11 06:15:13;;;;;;;16.63;4.20;;;8.40;99.90;;;;;;5185613;28;20025;-75
2021/12/11 06:17:46;;;;;;;21.02;3.58;;;8.40;99.90;;;;;;5186260;28;20378;-75
2021/12/11 06:20:21;;;;;;;12.18;4.97;;;8.40;99.90;;;;;;5169187;28;20034;-75
2021/12/11 06:22:53;;;;;;;13.73;4.53;;;8.60;99.90;;;;;;5166747;28;20114;-74
2021/12/11 06:25:28;;;;;;;27.92;9.68;;;8.50;99.90;;;;;;5166654;28;20022;-76
2021/12/11 06:27:59;;;;;;;20.10;6.55;;;8.50;99.90;;;;;;5165300;28;20034;-75
2021/12/11 06:30:30;;;;;;;21.77;5.45;;;8.60;99.90;;;;;;5166201;28;20042;-75
2021/12/11 06:33:01;;;;;;;16.27;6.00;;;8.90;99.90;;;;;;5166553;28;20133;-75
2021/12/11 06:35:54;;;;;;;16.10;5.57;;;8.90;99.90;;;;;;5166507;28;20058;-74
2021/12/11 06:38:28;;;;;;;17.38;7.18;;;9.10;99.90;;;;;;5166692;28;20037;-75
2021/12/11 06:41:01;;;;;;;85.80;10.13;;;8.70;99.90;;;;;;5166083;28;20033;-75
2021/12/11 06:43:32;;;;;;;23.60;7.43;;;9.20;99.90;;;;;;5166067;28;20149;-75
2021/12/11 06:46:04;;;;;;;19.80;7.35;;;9.20;99.90;;;;;;5166173;28;20030;-75
2021/12/11 06:48:36;;;;;;;17.67;6.68;;;9.30;99.90;;;;;;5166394;28;20034;-76
2021/12/11 06:51:06;;;;;;;23.42;7.82;;;9.50;99.90;;;;;;5166345;28;20030;-74
2021/12/11 06:53:46;;;;;;;24.40;10.48;;;9.50;99.90;;;;;;5166451;28;20077;-75
2021/12/11 06:56:20;;;;;;;33.97;16.63;;;9.70;99.90;;;;;;5166059;28;20041;-75
2021/12/11 06:58:53;;;;;;;35.97;21.30;;;9.90;99.90;;;;;;5165988;28;20034;-74
2021/12/11 07:01:25;;;;;;;28.27;14.88;;;9.90;99.90;;;;;;5164863;28;20121;-75
2021/12/11 07:03:59;;;;;;;21.50;8.93;;;10.20;99.90;;;;;;5165900;28;20022;-75
2021/12/11 07:06:31;;;;;;;24.98;11.93;;;10.50;99.90;;;;;;5165871;28;20389;-75
2021/12/11 07:09:06;;;;;;;17.35;6.55;;;10.70;99.90;;;;;;5166126;28;20015;-74
2021/12/11 07:11:39;;;;;;;31.52;12.90;;;10.90;99.90;;;;;;5165942;28;20034;-74
2021/12/11 07:14:12;;;;;;;19.60;6.85;;;11.30;99.90;;;;;;5166132;28;20022;-75
2021/12/11 07:16:44;;;;;;;22.67;7.20;;;11.40;99.90;;;;;;5165935;28;20042;-75
2021/12/11 07:19:15;;;;;;;12.52;2.50;;;12.00;99.90;;;;;;5165381;28;20034;-75
2021/12/11 07:21:50;;;;;;;13.77;4.07;;;12.90;99.90;;;;;;5166096;28;20018;-75
2021/12/11 07:24:32;;;;;;;10.27;3.67;;;13.20;99.90;;;;;;5166209;28;20475;-75
2021/12/11 07:27:07;;;;;;;16.25;4.15;;;13.40;99.90;;;;;;5166514;28;20022;-74
2021/12/11 07:29:40;;;;;;;11.40;2.42;;;13.50;99.90;;;;;;5165264;28;20031;-75
2021/12/11 07:32:11;;;;;;;9.68;2.42;;;13.60;99.90;;;;;;5169888;28;20042;-75
2021/12/11 07:34:43;;;;;;;12.60;2.50;;;13.90;99.90;;;;;;5169783;28;20374;-76
2021/12/11 07:37:16;;;;;;;19.45;3.13;;;14.00;99.90;;;;;;5169643;28;20027;-76
2021/12/11 07:39:47;;;;;;;10.20;2.20;;;14.50;99.90;;;;;;5177346;28;20462;-75
2021/12/11 07:42:18;;;;;;;8.10;2.15;;;14.40;99.90;;;;;;5190136;28;20022;-77
2021/12/11 07:44:49;;;;;;;9.23;2.03;;;14.60;99.90;;;;;;5169848;28;20415;-75
2021/12/11 07:47:20;;;;;;;12.73;1.80;;;14.40;99.90;;;;;;5170069;28;20034;-75
2021/12/11 07:49:51;;;;;;;7.82;1.60;;;14.70;99.90;;;;;;5170514;28;20398;-74
2021/12/11 07:52:22;;;;;;;9.98;1.88;;;14.60;99.90;;;;;;5182157;28;20031;-74
2021/12/11 07:54:53;;;;;;;11.10;1.40;;;14.90;99.90;;;;;;5169738;28;20340;-74
2021/12/11 07:57:24;;;;;;;11.85;1.75;;;15.10;99.90;;;;;;5182158;28;20033;-75
2021/12/11 07:59:55;;;;;;;7.97;1.05;;;15.40;99.90;;;;;;5189898;28;20104;-74
2021/12/11 08:02:26;;;;;;;6.53;1.50;;;15.30;99.90;;;;;;5190528;28;20140;-73
2021/12/11 08:05:00;;;;;;;5.93;1.55;;;15.10;99.90;;;;;;5189951;28;20038;-73
2021/12/11 08:07:31;;;;;;;9.65;1.20;;;15.20;99.90;;;;;;5187607;28;20030;-73
2021/12/11 08:10:12;;;;;;;8.15;1.10;;;15.30;99.90;;;;;;5176300;28;20026;-73
2021/12/11 08:12:49;;;;;;;5.45;1.10;;;15.00;99.90;;;;;;5173865;28;20045;-74
2021/12/11 08:15:21;;;;;;;10.13;1.45;;;15.10;99.90;;;;;;5183916;28;20049;-74
2021/12/11 08:17:54;;;;;;;6.15;1.27;;;15.30;99.90;;;;;;5182855;28;20446;-74
2021/12/11 08:20:29;;;;;;;11.27;1.30;;;15.60;99.90;;;;;;5185955;28;20010;-74
2021/12/11 08:23:00;;;;;;;7.22;1.15;;;15.20;99.90;;;;;;5178837;28;20444;-75
2021/12/11 08:25:34;;;;;;;6.57;1.15;;;15.20;99.90;;;;;;5168904;28;20053;-75
2021/12/11 08:28:06;;;;;;;9.88;1.13;;;15.00;99.90;;;;;;5167757;28;20105;-75
2021/12/11 08:30:40;;;;;;;14.75;1.20;;;15.10;99.90;;;;;;5168413;28;20565;-76
2021/12/11 08:33:13;;;;;;;12.05;2.28;;;15.10;99.90;;;;;;5168891;28;20038;-75
2021/12/11 08:35:46;;;;;;;7.55;1.10;;;15.40;99.90;;;;;;5168659;28;20027;-74
2021/12/11 08:38:17;;;;;;;5.50;1.20;;;15.30;99.90;;;;;;5168683;28;20049;-75
2021/12/11 08:40:53;;;;;;;6.95;2.42;;;15.40;99.90;;;;;;5168231;28;20470;-76
2021/12/11 08:43:24;;;;;;;9.73;1.30;;;15.50;99.90;;;;;;5168694;28;20019;-75
2021/12/11 08:46:09;;;;;;;12.68;1.00;;;15.80;99.90;;;;;;5168587;28;20536;-74
2021/12/11 08:48:44;;;;;;;5.20;0.85;;;16.00;99.90;;;;;;5169353;28;20081;-75
2021/12/11 08:51:31;;;;;;;11.65;1.48;;;15.90;99.90;;;;;;5168241;28;20042;-75
2021/12/11 08:54:04;;;;;;;8.40;1.00;;;15.90;99.90;;;;;;5168742;28;20113;-74
2021/12/11 08:56:36;;;;;;;10.60;1.25;;;15.60;99.90;;;;;;5168535;28;20586;-74
2021/12/11 08:59:16;;;;;;;5.88;1.38;;;15.90;99.90;;;;;;5168353;28;20497;-75
2021/12/11 09:02:07;;;;;;;7.70;1.35;;;15.70;99.90;;;;;;5168322;28;20132;-73
2021/12/11 09:04:55;;;;;;;11.55;1.50;;;15.50;99.90;;;;;;5168191;28;20034;-75
2021/12/11 09:07:31;;;;;;;9.63;1.65;;;15.70;99.90;;;;;;5168195;28;20378;-74
2021/12/11 09:10:11;;;;;;;6.82;1.30;;;15.50;99.90;;;;;;5168345;28;20030;-76
2021/12/11 09:13:08;;;;;;;8.48;1.10;;;16.00;99.90;;;;;;5168064;28;20043;-76
2021/12/11 09:15:48;;;;;;;5.47;0.90;;;16.10;99.90;;;;;;5167491;28;20037;-75
2021/12/11 09:18:25;;;;;;;9.18;1.20;;;16.00;99.90;;;;;;5166622;28;20030;-77
2021/12/11 09:21:07;;;;;;;5.00;1.08;;;16.00;99.90;;;;;;5167856;28;20095;-77
2021/12/11 09:23:53;;;;;;;4.47;1.05;;;16.00;99.90;;;;;;5167929;28;20053;-75
2021/12/11 09:26:50;;;;;;;6.57;1.50;;;15.90;99.90;;;;;;5167531;28;20117;-76
2021/12/11 09:29:29;;;;;;;10.23;1.27;;;16.30;99.90;;;;;;5167807;28;20026;-77
2021/12/11 09:32:18;;;;;;;8.52;1.42;;;16.40;99.90;;;;;;5167296;28;20069;-78
2021/12/11 09:34:57;;;;;;;15.47;1.10;;;17.00;99.90;;;;;;5167718;28;20030;-74
2021/12/11 09:37:29;;;;;;;6.47;1.10;;;16.90;99.90;;;;;;5167502;28;20276;-74
2021/12/11 09:40:25;;;;;;;8.52;1.38;;;17.10;99.90;;;;;;5166663;28;20080;-75
2021/12/11 09:42:55;;;;;;;7.90;1.40;;;17.00;99.90;;;;;;5166677;28;20038;-75
2021/12/11 09:45:32;;;;;;;5.45;1.10;;;16.60;99.90;;;;;;5165350;28;20027;-75
2021/12/11 09:48:14;;;;;;;8.30;1.60;;;16.90;99.90;;;;;;5166863;28;20382;-75
2021/12/11 09:50:57;;;;;;;5.85;1.05;;;16.90;99.90;;;;;;5166735;28;20478;-75
2021/12/11 09:53:37;;;;;;;10.32;1.15;;;17.10;99.90;;;;;;5164338;28;20156;-74
2021/12/11 09:56:15;;;;;;;5.95;1.00;;;16.80;99.90;;;;;;5166602;28;20034;-74
2021/12/11 09:58:46;;;;;;;7.25;1.10;;;16.90;99.90;;;;;;5166715;28;20449;-75
2021/12/11 10:01:27;;;;;;;10.73;1.65;;;17.10;99.90;;;;;;5166426;28;20022;-75
2021/12/11 10:04:07;;;;;;;8.82;1.10;;;17.10;99.90;;;;;;5166890;28;20022;-75
2021/12/11 10:09:35;;;;;;;6.97;1.23;;;17.20;99.90;;;;;;5187315;28;20511;-75
2021/12/11 10:12:16;;;;;;;7.07;1.23;;;16.80;99.90;;;;;;5187150;28;20034;-74
2021/12/11 10:14:51;;;;;;;8.73;1.17;;;16.70;99.90;;;;;;5185306;28;20753;-75
2021/12/11 10:17:27;;;;;;;5.93;1.33;;;16.90;99.90;;;;;;5185662;28;20060;-74
2021/12/11 10:20:03;;;;;;;7.22;1.08;;;16.40;99.90;;;;;;5186531;28;20084;-75
2021/12/11 10:22:36;;;;;;;5.57;1.23;;;16.20;99.90;;;;;;5186396;28;20108;-74
2021/12/11 10:25:13;;;;;;;8.45;1.50;;;16.40;99.90;;;;;;5186427;28;20026;-75
2021/12/11 10:27:45;;;;;;;8.50;1.25;;;16.40;99.90;;;;;;5186591;28;20026;-75
2021/12/11 10:30:22;;;;;;;10.20;1.40;;;16.20;99.90;;;;;;5186118;28;20061;-75
2021/12/11 10:32:54;;;;;;;6.78;1.30;;;16.30;99.90;;;;;;5186355;28;20034;-75
2021/12/11 10:35:29;;;;;;;12.00;2.10;;;16.20;99.90;;;;;;5186378;28;20501;-74
2021/12/11 10:38:03;;;;;;;10.10;1.58;;;16.10;99.90;;;;;;5186331;28;20389;-76
2021/12/11 10:40:38;;;;;;;6.78;1.17;;;16.10;99.90;;;;;;5186564;28;20037;-75
2021/12/11 10:43:18;;;;;;;7.07;1.05;;;16.00;99.90;;;;;;5186323;28;20487;-76
2021/12/11 10:45:50;;;;;;;9.27;2.07;;;16.10;99.90;;;;;;5186290;28;20338;-76
2021/12/11 10:48:28;;;;;;;8.63;2.00;;;16.20;99.90;;;;;;5186271;28;20052;-75
2021/12/11 10:51:06;;;;;;;10.10;2.15;;;16.20;99.90;;;;;;5186290;28;20032;-76
2021/12/11 10:53:40;;;;;;;9.02;1.60;;;16.40;99.90;;;;;;5186180;28;20034;-76
2021/12/11 10:56:17;;;;;;;12.05;1.55;;;16.50;99.90;;;;;;5186092;28;20373;-76
2021/12/11 10:58:53;;;;;;;10.52;1.90;;;16.60;99.90;;;;;;5186119;28;20022;-76
2021/12/11 11:01:35;;;;;;;9.55;1.35;;;16.50;99.90;;;;;;5185904;28;20030;-76
2021/12/11 11:04:11;;;;;;;10.55;1.52;;;16.40;99.90;;;;;;5187100;28;20026;-75
2021/12/11 11:06:45;;;;;;;18.17;1.70;;;16.30;99.90;;;;;;5188954;28;20029;-76
2021/12/11 11:09:18;;;;;;;9.88;1.92;;;16.40;99.90;;;;;;5190217;28;20022;-76
2021/12/11 11:11:53;;;;;;;8.50;1.27;;;16.30;99.90;;;;;;5190109;28;20045;-75
2021/12/11 11:14:24;;;;;;;7.82;1.83;;;16.20;99.90;;;;;;5190001;28;20109;-75
2021/12/11 11:17:01;;;;;;;6.60;1.27;;;16.30;99.90;;;;;;5190066;28;20037;-76
2021/12/11 11:19:37;;;;;;;14.20;1.65;;;16.40;99.90;;;;;;5190015;28;20096;-76
2021/12/11 11:22:12;;;;;;;11.85;1.80;;;16.50;99.90;;;;;;5189981;28;20041;-76
2021/12/11 11:24:49;;;;;;;9.90;1.73;;;16.60;99.90;;;;;;5189852;28;20010;-76
2021/12/11 11:27:20;;;;;;;10.05;1.10;;;16.40;99.90;;;;;;5189860;28;20022;-76
2021/12/11 11:29:52;;;;;;;6.28;1.17;;;16.50;99.90;;;;;;5189624;28;20104;-76
2021/12/11 11:32:31;;;;;;;15.98;2.00;;;16.50;99.90;;;;;;5189606;28;20057;-76
2021/12/11 11:35:15;;;;;;;16.67;2.95;;;16.50;99.90;;;;;;5189818;28;20057;-76
2021/12/11 11:37:50;;;;;;;8.52;1.60;;;16.40;99.90;;;;;;5189695;28;20037;-75
2021/12/11 11:40:28;;;;;;;6.78;1.88;;;16.50;99.90;;;;;;5189558;28;20050;-76
2021/12/11 11:42:59;;;;;;;12.63;1.58;;;16.50;99.90;;;;;;5189475;28;20041;-76
2021/12/11 11:45:31;;;;;;;10.70;2.13;;;16.40;99.90;;;;;;5189274;28;20470;-75
2021/12/11 11:48:03;;;;;;;12.20;1.45;;;16.50;99.90;;;;;;5189417;28;20032;-75
2021/12/11 11:50:39;;;;;;;9.40;1.48;;;16.50;99.90;;;;;;5189446;28;20042;-76
2021/12/11 11:53:12;;;;;;;7.18;1.58;;;16.50;99.90;;;;;;5189329;28;20474;-76
2021/12/11 11:55:49;;;;;;;12.10;2.15;;;16.60;99.90;;;;;;5189260;28;20094;-75
2021/12/11 11:58:20;;;;;;;8.80;1.40;;;16.50;99.90;;;;;;5189303;28;20018;-76
2021/12/11 12:01:08;;;;;;;12.52;2.10;;;16.50;99.90;;;;;;5189215;28;20057;-77
2021/12/11 12:03:39;;;;;;;10.90;2.03;;;16.50;99.90;;;;;;5189257;28;20018;-75
2021/12/11 12:06:12;;;;;;;7.95;1.90;;;16.60;99.90;;;;;;5188843;28;20040;-76
2021/12/11 12:08:43;;;;;;;11.00;2.50;;;16.70;99.90;;;;;;5189079;28;20457;-76
2021/12/11 12:11:15;;;;;;;10.13;2.05;;;16.80;99.90;;;;;;5188837;28;20033;-76
2021/12/11 12:13:46;;;;;;;12.23;2.10;;;16.80;99.90;;;;;;5188859;28;20030;-76
2021/12/11 12:16:17;;;;;;;15.65;2.03;;;16.70;99.90;;;;;;5188054;28;20029;-76
2021/12/11 12:18:48;;;;;;;12.25;2.08;;;16.70;99.90;;;;;;5188788;28;20052;-76
2021/12/11 12:21:19;;;;;;;13.25;1.85;;;16.80;99.90;;;;;;5188877;28;20026;-75
2021/12/11 12:23:50;;;;;;;15.27;2.45;;;16.90;99.90;;;;;;5188837;28;20393;-75
2021/12/11 12:26:25;;;;;;;16.13;2.42;;;16.80;99.90;;;;;;5188594;28;20080;-75
2021/12/11 12:28:59;;;;;;;10.90;2.00;;;16.90;99.90;;;;;;5188686;28;20061;-75
2021/12/11 12:31:38;;;;;;;12.82;2.10;;;17.00;99.90;;;;;;5188193;28;20112;-75
2021/12/11 12:34:11;;;;;;;12.25;2.35;;;16.90;99.90;;;;;;5188551;28;20108;-75
2021/12/11 12:36:44;;;;;;;11.63;1.65;;;17.00;99.90;;;;;;5188426;28;20033;-75
2021/12/11 12:39:17;;;;;;;14.93;2.50;;;17.10;99.90;;;;;;5187243;28;20440;-75
2021/12/11 12:42:04;;;;;;;13.85;2.55;;;17.20;99.90;;;;;;5187129;28;20477;-75
2021/12/11 12:44:35;;;;;;;17.48;2.25;;;17.10;99.90;;;;;;5188334;28;20057;-76
2021/12/11 12:47:19;;;;;;;13.45;2.83;;;17.10;99.90;;;;;;5188302;28;20064;-76
2021/12/11 12:49:53;;;;;;;16.30;2.45;;;16.90;99.90;;;;;;5188375;28;20010;-76
2021/12/11 12:52:36;;;;;;;14.85;2.55;;;16.90;99.90;;;;;;5188299;28;20469;-76
2021/12/11 12:55:14;;;;;;;14.93;2.15;;;16.90;99.90;;;;;;5186911;28;20622;-76
2021/12/11 12:57:49;;;;;;;18.85;2.28;;;16.90;99.90;;;;;;5188182;28;20056;-75
2021/12/11 13:00:30;;;;;;;12.75;2.13;;;16.90;99.90;;;;;;5187961;28;20385;-75
2021/12/11 13:03:11;;;;;;;12.50;2.60;;;16.80;99.90;;;;;;5188085;28;20026;-75
2021/12/11 13:05:48;;;;;;;23.77;4.95;;;16.80;99.90;;;;;;5187926;28;20022;-76
2021/12/11 13:08:32;;;;;;;13.55;2.35;;;16.80;99.90;;;;;;5187988;28;20041;-76
2021/12/11 13:11:11;;;;;;;18.52;2.85;;;16.70;99.90;;;;;;5184225;28;20049;-76
2021/12/11 13:13:43;;;;;;;15.75;3.10;;;16.80;99.90;;;;;;5186513;28;20034;-76
2021/12/11 13:16:26;;;;;;;15.25;2.28;;;16.60;99.90;;;;;;5187755;28;20440;-76
2021/12/11 13:19:07;;;;;;;12.45;2.70;;;16.60;99.90;;;;;;5187711;28;20029;-76
2021/12/11 13:21:42;;;;;;;15.65;2.55;;;16.50;99.90;;;;;;5186549;28;20049;-75
2021/12/11 13:24:14;;;;;;;15.57;2.45;;;16.60;99.90;;;;;;5187795;28;20034;-77
2021/12/11 13:26:48;;;;;;;10.65;2.47;;;16.40;99.90;;;;;;5187327;28;20084;-76
2021/12/11 13:29:23;;;;;;;15.73;2.85;;;16.40;99.90;;;;;;5187719;28;20037;-76
2021/12/11 13:32:07;;;;;;;19.80;2.88;;;16.40;99.90;;;;;;5187184;28;20050;-76
2021/12/11 13:34:40;;;;;;;19.77;4.65;;;16.30;99.90;;;;;;5187377;28;20030;-75
2021/12/11 13:37:15;;;;;;;24.65;7.13;;;16.40;99.90;;;;;;5187423;28;20072;-75
2021/12/11 13:39:47;;;;;;;15.93;3.33;;;16.20;99.90;;;;;;5187406;28;20462;-76
2021/12/11 13:42:24;;;;;;;15.82;2.78;;;16.00;99.90;;;;;;5187379;28;20064;-76
2021/12/11 13:45:03;;;;;;;16.73;2.83;;;16.20;99.90;;;;;;5187077;28;20034;-76